createdAt,value
2022-10-19T17:52:10.072Z,11.30
2022-10-19T17:54:43.717Z,11.10
2022-10-19T17:57:21.196Z,11.10
2022-10-19T17:59:52.899Z,11.10
2022-10-19T18:02:20.058Z,11.00
2022-10-19T18:04:46.758Z,11.10
2022-10-19T18:07:13.528Z,11.00
2022-10-19T18:09:40.247Z,11.00
2022-10-19T18:12:08.582Z,11.00
2022-10-19T18:14:35.293Z,11.00
2022-10-19T18:17:01.971Z,10.90
2022-10-19T18:19:28.694Z,10.90
2022-10-19T18:21:55.366Z,10.90
2022-10-19T18:24:22.283Z,10.90
2022-10-19T18:26:50.371Z,10.90
2022-10-19T18:29:20.820Z,10.90
2022-10-19T18:31:51.384Z,10.90
2022-10-19T18:34:21.125Z,10.90
2022-10-19T18:36:48.393Z,10.80
2022-10-19T18:39:15.793Z,10.80
2022-10-19T18:41:42.806Z,10.80
2022-10-19T18:44:12.750Z,10.80
2022-10-19T18:46:40.013Z,10.70
2022-10-19T18:49:08.154Z,10.70
2022-10-19T18:51:36.088Z,10.70
2022-10-19T18:54:02.832Z,10.70
2022-10-19T18:56:29.573Z,10.70
2022-10-19T18:58:56.871Z,10.70
2022-10-19T19:01:28.123Z,10.60
2022-10-19T19:03:57.231Z,10.60
2022-10-19T19:06:29.685Z,10.60
2022-10-19T19:08:58.242Z,10.50
2022-10-19T19:11:29.580Z,10.50
2022-10-19T19:14:20.960Z,10.50
2022-10-19T19:16:47.971Z,10.50
2022-10-19T19:19:16.606Z,10.50
2022-10-19T19:21:44.972Z,10.50
2022-10-19T19:24:18.207Z,10.40
2022-10-19T19:26:49.219Z,10.40
2022-10-19T19:29:16.704Z,10.30
2022-10-19T19:31:43.566Z,10.30
2022-10-19T19:34:10.975Z,10.30
2022-10-19T19:39:11.395Z,10.20
2022-10-19T19:41:38.362Z,10.20
2022-10-19T19:44:05.075Z,10.20
2022-10-19T19:46:32.192Z,10.10
2022-10-19T19:49:03.478Z,10.10
2022-10-19T19:51:32.159Z,10.00
2022-10-19T19:53:59.171Z,10.00
2022-10-19T19:56:25.883Z,9.90
2022-10-19T19:58:58.001Z,10.00
2022-10-19T20:01:26.003Z,9.90
2022-10-19T20:03:52.918Z,9.80
2022-10-19T20:06:23.511Z,9.90
2022-10-19T20:08:52.887Z,9.90
2022-10-19T20:11:19.743Z,9.80
2022-10-19T20:13:46.466Z,9.80
2022-10-19T20:16:16.305Z,9.80
2022-10-19T20:18:48.146Z,9.80
2022-10-19T20:21:15.791Z,9.70
2022-10-19T20:23:46.576Z,9.70
2022-10-19T20:26:21.640Z,9.70
2022-10-19T20:28:49.257Z,9.70
2022-10-19T20:31:16.419Z,9.60
2022-10-19T20:33:44.838Z,9.70
2022-10-19T20:36:14.391Z,9.60
2022-10-19T20:38:46.533Z,9.60
2022-10-19T20:41:13.287Z,9.60
2022-10-19T20:43:39.918Z,9.60
2022-10-19T20:46:10.040Z,9.50
2022-10-19T20:48:36.735Z,9.50
2022-10-19T20:51:12.998Z,9.50
2022-10-19T20:53:40.486Z,9.50
2022-10-19T20:56:09.346Z,9.40
2022-10-19T20:58:40.143Z,9.40
2022-10-19T21:01:15.689Z,9.40
2022-10-19T21:04:04.491Z,9.40
2022-10-19T21:06:33.210Z,9.40
2022-10-19T21:09:00.748Z,9.30
2022-10-19T21:11:33.374Z,9.30
2022-10-19T21:14:01.328Z,9.30
2022-10-19T21:16:35.344Z,9.30
2022-10-19T21:19:04.237Z,9.30
2022-10-19T21:21:34.510Z,9.20
2022-10-19T21:24:04.790Z,9.20
2022-10-19T21:26:33.168Z,9.20
2022-10-19T21:29:00.079Z,9.10
2022-10-19T21:31:27.306Z,9.10
2022-10-19T21:33:54.720Z,9.10
2022-10-19T21:36:22.855Z,9.00
2022-10-19T21:38:49.524Z,9.00
2022-10-19T21:41:20.936Z,9.00
2022-10-19T21:43:50.610Z,8.90
2022-10-19T21:46:20.451Z,8.90
2022-10-19T21:48:47.643Z,8.90
2022-10-19T21:51:23.398Z,8.90
2022-10-19T21:53:50.436Z,8.90
2022-10-19T21:56:17.714Z,8.90
2022-10-19T21:58:51.604Z,8.90
2022-10-19T22:01:20.946Z,8.90
2022-10-19T22:03:47.853Z,8.80
2022-10-19T22:06:14.843Z,8.80
2022-10-19T22:08:46.130Z,8.70
2022-10-19T22:11:14.154Z,8.70
2022-10-19T22:13:41.567Z,8.70
2022-10-19T22:16:19.623Z,8.70
2022-10-19T22:18:47.204Z,8.70
2022-10-19T22:21:24.400Z,8.60
2022-10-19T22:23:56.456Z,8.50
2022-10-19T22:26:31.871Z,8.50
2022-10-19T22:28:59.939Z,8.50
2022-10-19T22:31:28.476Z,8.50
2022-10-19T22:33:55.143Z,8.50
2022-10-19T22:36:22.116Z,8.50
2022-10-19T22:38:48.845Z,8.60
2022-10-19T22:42:05.258Z,8.60
2022-10-19T22:44:32.274Z,8.50
2022-10-19T22:46:59.352Z,8.50
2022-10-19T22:49:26.141Z,8.50
2022-10-19T22:51:52.857Z,8.50
2022-10-19T22:54:19.579Z,8.50
2022-10-19T22:56:46.242Z,8.40
2022-10-19T22:59:12.972Z,8.40
2022-10-19T23:01:39.783Z,8.40
2022-10-19T23:04:06.931Z,8.40
2022-10-19T23:06:33.706Z,8.40
2022-10-19T23:09:00.569Z,8.40
2022-10-19T23:11:27.403Z,8.40
2022-10-19T23:13:54.105Z,8.30
2022-10-19T23:16:20.896Z,8.40
2022-10-19T23:18:47.654Z,8.40
2022-10-19T23:21:15.119Z,8.30
2022-10-19T23:23:42.051Z,8.30
2022-10-19T23:26:15.084Z,8.20
2022-10-19T23:28:43.930Z,8.20
2022-10-19T23:31:16.532Z,8.20
2022-10-19T23:33:43.567Z,8.20
2022-10-19T23:36:19.935Z,8.20
2022-10-19T23:38:48.187Z,8.30
2022-10-19T23:41:15.529Z,8.20
2022-10-19T23:43:42.568Z,8.20
2022-10-19T23:46:09.602Z,8.20
2022-10-19T23:48:36.753Z,8.20
2022-10-19T23:51:05.899Z,8.20
2022-10-19T23:53:37.070Z,8.20
2022-10-19T23:56:18.558Z,8.20
2022-10-19T23:58:45.858Z,8.20
